createdAt,value
2019-05-02T00:00:15.694Z,8.35
2019-05-02T00:02:45.094Z,8.85
2019-05-02T00:05:14.934Z,7.60
2019-05-02T00:07:44.068Z,8.13
2019-05-02T00:10:15.040Z,7.80
2019-05-02T00:12:44.815Z,8.15
2019-05-02T00:15:14.040Z,7.50
2019-05-02T00:17:43.327Z,6.95
2019-05-02T00:20:12.563Z,6.47
2019-05-02T00:22:41.697Z,7.25
2019-05-02T00:25:11.061Z,7.10
2019-05-02T00:27:41.758Z,6.55
2019-05-02T00:30:11.134Z,6.87
2019-05-02T00:32:40.348Z,7.40
2019-05-02T00:35:09.583Z,7.37
2019-05-02T00:37:38.723Z,7.20
2019-05-02T00:40:08.214Z,7.05
2019-05-02T00:42:37.406Z,7.12
2019-05-02T00:45:06.558Z,6.87
2019-05-02T00:47:37.427Z,7.17
2019-05-02T00:50:11.343Z,7.00
2019-05-02T00:52:39.404Z,7.15
2019-05-02T00:55:08.564Z,6.97
2019-05-02T00:57:37.837Z,6.67
2019-05-02T01:00:07.001Z,6.67
2019-05-02T01:02:40.663Z,6.92
2019-05-02T01:05:08.908Z,7.28
2019-05-02T01:07:38.104Z,6.83
2019-05-02T01:10:07.336Z,6.58
2019-05-02T01:12:40.054Z,6.42
2019-05-02T01:15:08.432Z,7.20
2019-05-02T01:17:38.572Z,6.87
2019-05-02T01:20:07.824Z,7.25
2019-05-02T01:22:37.930Z,7.42
2019-05-02T01:25:15.103Z,7.00
2019-05-02T01:27:41.231Z,7.28
2019-05-02T01:30:25.236Z,6.15
2019-05-02T01:32:56.028Z,7.10
2019-05-02T01:35:41.766Z,7.30
2019-05-02T01:38:26.394Z,7.12
2019-05-02T01:40:55.075Z,7.75
2019-05-02T01:43:26.535Z,6.80
2019-05-02T01:45:55.832Z,6.65
2019-05-02T01:48:25.467Z,6.40
2019-05-02T01:50:54.618Z,6.65
2019-05-02T01:53:23.796Z,6.97
2019-05-02T01:55:57.351Z,7.08
2019-05-02T01:58:23.878Z,6.45
2019-05-02T02:00:53.095Z,6.08
2019-05-02T02:03:22.364Z,6.42
2019-05-02T02:05:51.721Z,6.00
2019-05-02T02:08:20.926Z,6.05
2019-05-02T02:10:50.560Z,6.25
2019-05-02T02:13:21.111Z,5.83
2019-05-02T02:15:50.225Z,6.30
2019-05-02T02:18:22.200Z,5.90
2019-05-02T02:20:53.290Z,5.80
2019-05-02T02:23:27.049Z,5.67
2019-05-02T02:25:57.885Z,5.97
2019-05-02T02:28:32.032Z,6.42
2019-05-02T02:31:04.961Z,5.95
2019-05-02T02:33:28.818Z,5.62
2019-05-02T02:35:58.098Z,6.22
2019-05-02T02:38:33.498Z,5.67
2019-05-02T02:40:58.154Z,6.15
2019-05-02T02:43:34.085Z,5.92
2019-05-02T02:46:13.385Z,6.05
2019-05-02T02:51:22.248Z,6.03
2019-05-02T02:53:43.143Z,6.53
2019-05-02T02:56:12.334Z,6.12
2019-05-02T02:58:45.558Z,5.80
2019-05-02T03:01:12.358Z,6.37
2019-05-02T03:03:41.506Z,5.85
2019-05-02T03:06:10.716Z,5.85
2019-05-02T03:08:46.252Z,6.20
2019-05-02T03:11:22.787Z,6.50
2019-05-02T03:14:05.693Z,5.47
2019-05-02T03:16:29.332Z,6.10
2019-05-02T03:18:58.519Z,6.28
2019-05-02T03:21:27.681Z,5.78
2019-05-02T03:24:03.190Z,6.50
2019-05-02T03:26:27.734Z,5.87
2019-05-02T03:28:58.641Z,6.03
2019-05-02T03:31:30.456Z,6.12
2019-05-02T03:34:00.851Z,5.70
2019-05-02T03:36:35.556Z,6.03
2019-05-02T03:39:00.334Z,6.20
2019-05-02T03:41:29.629Z,5.92
2019-05-02T03:44:10.688Z,6.22
2019-05-02T03:46:29.937Z,6.22
2019-05-02T03:49:07.367Z,5.90
2019-05-02T03:51:30.046Z,6.03
2019-05-02T03:54:07.073Z,6.08
2019-05-02T03:56:31.562Z,5.75
2019-05-02T03:59:00.767Z,6.08
2019-05-02T04:01:34.860Z,6.03
2019-05-02T04:04:01.506Z,6.17
2019-05-02T04:06:30.654Z,5.87
2019-05-02T04:09:01.760Z,6.12
2019-05-02T04:11:39.250Z,5.97
2019-05-02T04:14:14.892Z,5.85
2019-05-02T04:16:33.926Z,6.05
2019-05-02T04:19:03.087Z,6.20
2019-05-02T04:21:32.373Z,5.65
2019-05-02T04:24:10.726Z,5.80
2019-05-02T04:26:32.884Z,6.92
2019-05-02T04:29:02.316Z,6.03
2019-05-02T04:31:33.637Z,6.00
2019-05-02T04:34:14.105Z,6.30
2019-05-02T04:36:33.363Z,6.45
2019-05-02T04:39:05.899Z,5.35
2019-05-02T04:41:34.361Z,6.28
2019-05-02T04:44:04.225Z,5.53
2019-05-02T04:46:33.494Z,6.00
2019-05-02T04:49:02.702Z,5.70
2019-05-02T04:51:32.447Z,5.65
2019-05-02T04:54:01.815Z,5.42
2019-05-02T04:56:31.138Z,5.28
2019-05-02T04:59:01.932Z,5.03
2019-05-02T05:01:42.215Z,5.65
2019-05-02T05:04:03.116Z,5.30
2019-05-02T05:06:32.649Z,5.15
2019-05-02T05:09:04.203Z,5.47
2019-05-02T05:11:32.774Z,5.62
2019-05-02T05:14:01.940Z,4.92
2019-05-02T05:16:31.097Z,5.53
2019-05-02T05:19:00.416Z,5.35
2019-05-02T05:21:30.907Z,5.30
2019-05-02T05:24:01.932Z,5.72
2019-05-02T05:26:39.180Z,5.62
2019-05-02T05:29:08.267Z,5.00
2019-05-02T05:31:38.252Z,4.42
2019-05-02T05:34:07.796Z,5.35
2019-05-02T05:36:38.400Z,6.03
2019-05-02T05:39:11.526Z,4.95
2019-05-02T05:41:42.680Z,5.25
2019-05-02T05:44:10.142Z,5.08
2019-05-02T05:46:42.532Z,6.17
2019-05-02T05:49:17.837Z,4.67
2019-05-02T05:51:41.125Z,4.72
2019-05-02T05:54:10.519Z,4.85
2019-05-02T05:56:43.085Z,4.87
2019-05-02T05:59:13.619Z,4.67
2019-05-02T06:01:43.467Z,4.83
2019-05-02T06:04:13.843Z,4.35
2019-05-02T06:06:43.873Z,5.12
2019-05-02T06:09:13.967Z,6.67
2019-05-02T06:11:43.335Z,4.95
2019-05-02T06:14:12.668Z,4.28
2019-05-02T06:16:46.532Z,5.00
2019-05-02T06:19:17.906Z,4.97
2019-05-02T06:21:45.231Z,5.05
2019-05-02T06:24:15.640Z,5.33
2019-05-02T06:26:49.655Z,4.97
2019-05-02T06:29:18.495Z,4.90
2019-05-02T06:31:48.025Z,4.60
2019-05-02T06:34:17.728Z,4.58
2019-05-02T06:36:47.017Z,4.00
2019-05-02T06:39:16.355Z,5.53
2019-05-02T06:41:45.516Z,4.58
2019-05-02T06:44:18.544Z,4.55
2019-05-02T06:46:45.802Z,4.50
2019-05-02T06:49:15.066Z,4.40
2019-05-02T06:51:44.272Z,4.22
2019-05-02T06:54:13.423Z,4.87
2019-05-02T06:56:43.179Z,4.70
2019-05-02T06:59:18.442Z,4.78
2019-05-02T07:01:44.542Z,4.37
2019-05-02T07:04:17.491Z,4.05
2019-05-02T07:06:57.745Z,4.90
2019-05-02T07:09:15.666Z,5.75
2019-05-02T07:11:56.658Z,6.10
2019-05-02T07:14:18.590Z,6.78
2019-05-02T07:16:56.359Z,6.70
2019-05-02T07:19:29.208Z,6.10
2019-05-02T07:22:03.797Z,5.05
2019-05-02T07:24:30.732Z,5.05
2019-05-02T07:27:02.341Z,5.53
2019-05-02T07:29:31.551Z,5.25
2019-05-02T07:32:00.727Z,5.35
2019-05-02T07:34:29.946Z,5.12
2019-05-02T07:36:59.101Z,6.15
2019-05-02T07:39:28.243Z,6.60
2019-05-02T07:42:00.476Z,5.78
2019-05-02T07:44:32.771Z,6.50
2019-05-02T07:47:02.597Z,6.70
2019-05-02T07:49:32.235Z,5.40
2019-05-02T07:52:01.089Z,7.25
2019-05-02T07:54:30.388Z,6.10
2019-05-02T07:57:02.203Z,6.87
2019-05-02T07:59:31.544Z,7.33
2019-05-02T08:02:02.473Z,7.12
2019-05-02T08:04:31.759Z,6.62
2019-05-02T08:07:03.757Z,6.92
2019-05-02T08:09:39.088Z,6.55
2019-05-02T08:12:08.836Z,6.35
2019-05-02T08:14:37.996Z,6.05
2019-05-02T08:17:16.293Z,6.37
2019-05-02T08:19:41.753Z,6.03
2019-05-02T08:22:13.251Z,6.60
2019-05-02T08:24:39.928Z,7.15
2019-05-02T08:27:16.753Z,6.42
2019-05-02T08:29:46.097Z,6.03
2019-05-02T08:32:15.345Z,6.62
2019-05-02T08:34:46.072Z,6.80
2019-05-02T08:37:16.673Z,6.55
2019-05-02T08:39:45.980Z,6.85
2019-05-02T08:42:15.437Z,6.53
2019-05-02T08:44:51.098Z,6.65
2019-05-02T08:47:19.103Z,6.25
2019-05-02T08:49:49.271Z,6.17
2019-05-02T08:52:17.356Z,6.92
2019-05-02T08:54:46.549Z,6.30
2019-05-02T08:57:15.738Z,6.78
2019-05-02T08:59:45.024Z,7.47
2019-05-02T09:02:14.319Z,6.85
2019-05-02T09:04:43.499Z,6.83
2019-05-02T09:07:12.683Z,6.22
2019-05-02T09:09:41.978Z,6.28
2019-05-02T09:12:13.251Z,6.22
2019-05-02T09:14:42.639Z,6.70
2019-05-02T09:17:15.840Z,6.28
2019-05-02T09:19:42.999Z,6.70
2019-05-02T09:22:16.575Z,7.75
2019-05-02T09:24:44.954Z,7.78
2019-05-02T09:27:14.201Z,6.50
2019-05-02T09:29:45.920Z,7.35
2019-05-02T09:32:17.205Z,7.17
2019-05-02T09:34:45.349Z,7.40
2019-05-02T09:37:14.528Z,7.10
2019-05-02T09:39:43.681Z,6.83
2019-05-02T09:42:15.237Z,6.25
2019-05-02T09:44:47.993Z,6.35
2019-05-02T09:47:16.290Z,6.92
2019-05-02T09:49:49.024Z,7.47
2019-05-02T09:52:19.059Z,6.70
2019-05-02T09:54:48.249Z,6.30
2019-05-02T09:57:17.412Z,7.00
2019-05-02T09:59:50.473Z,7.17
2019-05-02T10:02:17.444Z,6.62
2019-05-02T10:04:46.759Z,11.75
2019-05-02T10:07:15.998Z,7.67
2019-05-02T10:09:45.134Z,6.40
2019-05-02T10:12:14.352Z,6.35
2019-05-02T10:14:43.551Z,7.15
2019-05-02T10:17:12.804Z,6.60
2019-05-02T10:19:48.813Z,6.20
2019-05-02T10:22:12.908Z,7.47
2019-05-02T10:24:42.578Z,6.50
2019-05-02T10:27:12.615Z,6.12
2019-05-02T10:29:41.956Z,7.08
2019-05-02T10:32:16.460Z,6.83
2019-05-02T10:34:47.484Z,6.55
2019-05-02T10:37:14.061Z,6.53
2019-05-02T10:39:43.245Z,7.62
2019-05-02T10:42:12.592Z,6.03
2019-05-02T10:44:42.669Z,8.38
2019-05-02T10:47:12.814Z,5.97
2019-05-02T10:49:49.825Z,6.53
2019-05-02T10:52:21.540Z,7.15
2019-05-02T10:54:50.383Z,6.65
2019-05-02T10:57:19.535Z,5.90
2019-05-02T10:59:48.709Z,5.28
2019-05-02T11:02:25.212Z,5.67
2019-05-02T11:04:56.020Z,5.47
2019-05-02T11:07:26.451Z,6.03
2019-05-02T11:09:57.422Z,5.22
2019-05-02T11:12:47.000Z,5.53
2019-05-02T11:15:33.511Z,5.37
2019-05-02T11:18:02.966Z,6.25
2019-05-02T11:20:32.383Z,5.58
2019-05-02T11:23:04.289Z,6.03
2019-05-02T11:25:33.431Z,5.87
2019-05-02T11:28:06.982Z,6.55
2019-05-02T11:30:33.458Z,5.80
2019-05-02T11:33:03.053Z,6.05
2019-05-02T11:35:32.479Z,5.62
2019-05-02T11:38:02.511Z,5.28
2019-05-02T11:40:32.219Z,4.62
2019-05-02T11:43:04.966Z,4.78
2019-05-02T11:45:32.431Z,4.12
2019-05-02T11:48:09.222Z,3.90
2019-05-02T11:50:35.375Z,3.95
2019-05-02T11:53:09.216Z,4.42
2019-05-02T11:55:34.342Z,4.50
2019-05-02T11:58:08.077Z,5.72
2019-05-02T12:00:34.461Z,5.85
2019-05-02T12:03:12.644Z,5.87
2019-05-02T12:05:43.246Z,5.92
2019-05-02T12:08:12.471Z,5.50
2019-05-02T12:10:42.736Z,4.75
2019-05-02T12:13:15.962Z,3.60
2019-05-02T12:15:44.286Z,3.58
2019-05-02T12:18:13.713Z,13.18
2019-05-02T12:20:43.014Z,6.92
2019-05-02T12:23:12.970Z,4.22
2019-05-02T12:25:42.529Z,3.75
2019-05-02T12:28:12.136Z,4.05
2019-05-02T12:30:42.021Z,7.95
2019-05-02T12:33:12.514Z,4.45
2019-05-02T12:35:43.297Z,4.25
2019-05-02T12:38:12.735Z,3.42
2019-05-02T12:40:42.319Z,3.95
2019-05-02T12:43:12.175Z,5.75
2019-05-02T12:45:42.136Z,4.85
2019-05-02T12:48:12.987Z,3.70
2019-05-02T12:50:42.399Z,4.40
2019-05-02T12:53:12.663Z,4.95
2019-05-02T12:55:42.286Z,4.30
2019-05-02T12:58:12.728Z,4.50
2019-05-02T13:00:43.242Z,3.95
2019-05-02T13:03:31.714Z,3.52
2019-05-02T13:06:02.959Z,4.12
2019-05-02T13:08:32.380Z,3.87
2019-05-02T13:11:06.847Z,4.00
2019-05-02T13:13:37.481Z,4.75
2019-05-02T13:16:06.779Z,4.78
2019-05-02T13:18:37.329Z,5.47
2019-05-02T13:21:15.184Z,3.77
2019-05-02T13:23:42.483Z,3.62
2019-05-02T13:26:19.892Z,6.05
2019-05-02T13:28:44.194Z,3.75
2019-05-02T13:31:15.132Z,3.20
2019-05-02T13:33:45.984Z,3.92
2019-05-02T13:36:37.595Z,3.40
2019-05-02T13:39:07.203Z,3.12
2019-05-02T13:41:36.919Z,2.37
2019-05-02T13:44:06.835Z,2.42
2019-05-02T13:46:36.087Z,2.83
2019-05-02T13:49:05.243Z,2.40
2019-05-02T13:51:36.510Z,2.83
2019-05-02T13:54:06.988Z,3.35
2019-05-02T13:56:37.784Z,3.47
2019-05-02T13:59:07.026Z,2.77
2019-05-02T14:01:36.312Z,2.75
2019-05-02T14:04:10.109Z,3.22
2019-05-02T14:06:37.914Z,4.53
2019-05-02T14:09:20.133Z,3.60
2019-05-02T14:11:52.656Z,3.33
2019-05-02T14:14:22.813Z,2.70
2019-05-02T14:16:52.998Z,2.55
2019-05-02T14:19:22.442Z,3.37
2019-05-02T14:21:51.921Z,2.92
2019-05-02T14:24:24.033Z,2.80
2019-05-02T14:26:53.261Z,2.60
2019-05-02T14:29:22.592Z,2.47
2019-05-02T14:31:52.693Z,2.52
2019-05-02T14:34:23.495Z,2.40
2019-05-02T14:36:57.437Z,2.00
2019-05-02T14:39:23.774Z,2.80
2019-05-02T14:41:52.924Z,2.83
2019-05-02T14:44:26.870Z,1.95
2019-05-02T14:46:53.134Z,2.15
2019-05-02T14:49:25.482Z,2.42
2019-05-02T14:51:57.207Z,2.72
2019-05-02T14:54:24.050Z,2.75
2019-05-02T14:56:54.833Z,2.50
2019-05-02T14:59:24.084Z,3.27
2019-05-02T15:01:57.932Z,2.80
2019-05-02T15:04:25.978Z,4.93
2019-05-02T15:06:55.176Z,2.98
2019-05-02T15:09:26.823Z,2.83
2019-05-02T15:11:57.909Z,3.25
2019-05-02T15:14:29.764Z,3.22
2019-05-02T15:16:58.937Z,3.10
2019-05-02T15:19:28.077Z,3.37
2019-05-02T15:21:57.336Z,3.22
2019-05-02T15:24:30.714Z,3.05
2019-05-02T15:26:57.372Z,3.25
2019-05-02T15:29:27.336Z,3.55
2019-05-02T15:32:14.733Z,3.60
2019-05-02T15:35:02.397Z,2.87
2019-05-02T15:37:35.734Z,3.72
2019-05-02T15:42:37.858Z,3.40
2019-05-02T15:45:07.932Z,3.30
2019-05-02T15:47:41.514Z,2.90
2019-05-02T15:50:09.120Z,3.75
2019-05-02T15:52:41.951Z,3.42
2019-05-02T15:55:11.617Z,4.00
2019-05-02T15:57:43.760Z,3.55
2019-05-02T16:00:17.153Z,3.50
2019-05-02T16:02:44.568Z,3.87
2019-05-02T16:05:13.900Z,4.00
2019-05-02T16:07:46.581Z,3.37
2019-05-02T16:10:13.990Z,4.47
2019-05-02T16:12:44.778Z,4.25
2019-05-02T16:15:21.534Z,4.47
2019-05-02T16:17:44.886Z,4.08
2019-05-02T16:20:21.446Z,4.05
2019-05-02T16:22:52.411Z,4.05
2019-05-02T16:25:24.457Z,3.90
2019-05-02T16:27:52.907Z,4.97
2019-05-02T16:30:23.404Z,4.00
2019-05-02T16:32:57.203Z,4.10
2019-05-02T16:35:28.290Z,4.12
2019-05-02T16:37:57.604Z,4.10
2019-05-02T16:40:29.798Z,4.97
2019-05-02T16:42:57.944Z,4.20
2019-05-02T16:45:27.275Z,4.72
2019-05-02T16:48:00.604Z,5.08
2019-05-02T16:50:31.837Z,5.05
2019-05-02T16:52:58.275Z,4.42
2019-05-02T16:55:27.567Z,4.40
2019-05-02T16:58:02.771Z,5.03
2019-05-02T17:00:28.885Z,5.25
2019-05-02T17:02:58.030Z,4.80
2019-05-02T17:05:27.201Z,5.05
2019-05-02T17:08:02.301Z,5.15
2019-05-02T17:10:36.172Z,5.30
2019-05-02T17:13:06.439Z,5.35
2019-05-02T17:15:36.863Z,5.03
2019-05-02T17:18:12.887Z,5.75
2019-05-02T17:20:37.484Z,5.55
2019-05-02T17:23:07.684Z,5.60
2019-05-02T17:25:37.286Z,5.80
2019-05-02T17:28:10.293Z,5.78
2019-05-02T17:30:39.069Z,5.47
2019-05-02T17:33:14.427Z,5.50
2019-05-02T17:35:43.361Z,5.90
2019-05-02T17:38:11.900Z,7.05
2019-05-02T17:40:42.197Z,7.37
2019-05-02T17:43:11.662Z,6.20
2019-05-02T17:45:40.940Z,6.62
2019-05-02T17:48:16.057Z,6.12
2019-05-02T17:50:59.251Z,6.58
2019-05-02T17:53:27.020Z,5.87
2019-05-02T17:55:56.358Z,6.12
2019-05-02T17:58:26.613Z,6.60
2019-05-02T18:01:00.113Z,6.90
2019-05-02T18:03:31.059Z,5.73
2019-05-02T18:05:59.450Z,6.62
2019-05-02T18:08:28.676Z,6.30
2019-05-02T18:11:00.048Z,6.37
2019-05-02T18:13:29.109Z,7.08
2019-05-02T18:15:59.637Z,7.55
2019-05-02T18:18:28.800Z,8.20
2019-05-02T18:20:57.990Z,7.03
2019-05-02T18:23:27.708Z,6.90
2019-05-02T18:26:01.501Z,7.33
2019-05-02T18:28:28.064Z,6.90
2019-05-02T18:31:01.893Z,6.45
2019-05-02T18:33:28.118Z,7.95
2019-05-02T18:35:57.311Z,6.28
2019-05-02T18:38:26.590Z,5.87
2019-05-02T18:41:00.254Z,5.47
2019-05-02T18:43:26.628Z,5.78
2019-05-02T18:45:58.167Z,6.40
2019-05-02T18:48:26.912Z,5.72
2019-05-02T18:50:56.111Z,5.90
2019-05-02T18:53:27.256Z,7.53
2019-05-02T18:55:56.738Z,6.28
2019-05-02T18:58:27.318Z,6.00
2019-05-02T19:00:59.264Z,7.53
2019-05-02T19:03:28.572Z,6.95
2019-05-02T19:05:59.001Z,6.00
2019-05-02T19:08:31.576Z,5.58
2019-05-02T19:11:05.981Z,5.80
2019-05-02T19:13:32.738Z,5.80
2019-05-02T19:16:02.018Z,6.10
2019-05-02T19:18:32.348Z,6.25
2019-05-02T19:21:03.189Z,6.05
2019-05-02T19:23:34.987Z,6.55
2019-05-02T19:26:09.930Z,7.12
2019-05-02T19:28:38.342Z,6.50
2019-05-02T19:31:08.130Z,6.97
2019-05-02T19:33:42.680Z,6.67
2019-05-02T19:36:09.304Z,6.55
2019-05-02T19:38:38.468Z,6.40
2019-05-02T19:41:09.287Z,6.40
2019-05-02T19:43:40.517Z,7.45
2019-05-02T19:46:11.970Z,6.53
2019-05-02T19:48:42.863Z,6.72
2019-05-02T19:51:18.423Z,7.20
2019-05-02T19:53:43.404Z,6.78
2019-05-02T19:56:12.864Z,7.62
2019-05-02T19:58:46.467Z,7.33
2019-05-02T20:01:17.496Z,6.72
2019-05-02T20:03:44.071Z,7.75
2019-05-02T20:06:14.375Z,7.62
2019-05-02T20:08:43.565Z,6.55
2019-05-02T20:11:12.889Z,7.85
2019-05-02T20:13:42.181Z,7.25
2019-05-02T20:16:19.081Z,13.05
2019-05-02T20:18:48.239Z,7.65
2019-05-02T20:21:27.340Z,8.20
2019-05-02T20:23:52.719Z,7.10
2019-05-02T20:26:22.193Z,7.30
2019-05-02T20:28:52.763Z,7.58
2019-05-02T20:31:22.276Z,7.55
2019-05-02T20:33:52.049Z,7.33
2019-05-02T20:36:22.826Z,7.83
2019-05-02T20:38:52.540Z,8.00
2019-05-02T20:41:22.417Z,8.28
2019-05-02T20:43:51.856Z,8.60
2019-05-02T20:46:21.895Z,8.73
2019-05-02T20:48:52.699Z,8.90
2019-05-02T20:51:22.759Z,10.35
2019-05-02T20:53:53.207Z,10.50
2019-05-02T20:56:23.507Z,11.78
2019-05-02T20:58:52.836Z,12.98
2019-05-02T21:01:22.194Z,13.18
2019-05-02T21:03:52.519Z,13.28
2019-05-02T21:06:40.772Z,14.65
2019-05-02T21:09:10.783Z,14.98
2019-05-02T21:11:41.822Z,17.23
2019-05-02T21:14:12.293Z,17.82
2019-05-02T21:16:41.631Z,17.07
2019-05-02T21:19:12.397Z,16.85
2019-05-02T21:21:42.702Z,15.25
2019-05-02T21:24:12.098Z,13.43
2019-05-02T21:26:42.107Z,13.88
2019-05-02T21:29:12.583Z,15.95
2019-05-02T21:31:42.551Z,10.70
2019-05-02T21:34:12.963Z,10.50
2019-05-02T21:36:42.601Z,10.93
2019-05-02T21:39:12.028Z,9.70
2019-05-02T21:41:42.381Z,9.33
2019-05-02T21:44:13.161Z,8.73
2019-05-02T21:46:42.489Z,8.68
2019-05-02T21:49:13.342Z,8.43
2019-05-02T21:51:51.808Z,9.00
2019-05-02T21:54:22.802Z,10.38
2019-05-02T21:56:56.344Z,8.53
2019-05-02T21:59:25.505Z,8.13
2019-05-02T22:01:56.272Z,8.45
2019-05-02T22:04:25.592Z,8.03
2019-05-02T22:06:54.719Z,7.28
2019-05-02T22:09:23.935Z,5.85
2019-05-02T22:11:53.080Z,5.92
2019-05-02T22:14:22.565Z,6.35
2019-05-02T22:16:53.025Z,6.65
2019-05-02T22:19:22.496Z,6.40
2019-05-02T22:21:52.442Z,6.17
2019-05-02T22:24:21.809Z,6.20
2019-05-02T22:26:52.567Z,5.92
2019-05-02T22:29:22.028Z,6.08
2019-05-02T22:31:54.188Z,6.20
2019-05-02T22:34:22.253Z,6.00
2019-05-02T22:36:53.843Z,6.20
2019-05-02T22:39:36.123Z,5.65
2019-05-02T22:42:05.301Z,5.87
2019-05-02T22:44:34.520Z,8.20
2019-05-02T22:47:03.834Z,5.70
2019-05-02T22:49:33.055Z,5.83
2019-05-02T22:52:02.223Z,6.45
2019-05-02T22:54:33.723Z,5.15
2019-05-02T22:57:03.396Z,6.22
2019-05-02T22:59:32.541Z,5.55
2019-05-02T23:02:02.176Z,5.35
2019-05-02T23:04:32.585Z,5.15
2019-05-02T23:07:02.439Z,4.28
2019-05-02T23:09:31.759Z,4.00
2019-05-02T23:12:02.894Z,3.70
2019-05-02T23:14:32.525Z,3.90
2019-05-02T23:17:02.276Z,3.67
2019-05-02T23:19:31.862Z,3.77
2019-05-02T23:22:02.263Z,3.52
2019-05-02T23:24:48.340Z,3.37
2019-05-02T23:27:19.127Z,3.65
2019-05-02T23:29:48.254Z,4.10
2019-05-02T23:32:17.427Z,3.80
2019-05-02T23:34:46.593Z,3.35
2019-05-02T23:37:15.775Z,3.58
2019-05-02T23:39:44.995Z,3.37
2019-05-02T23:42:14.251Z,3.70
2019-05-02T23:44:43.405Z,3.27
2019-05-02T23:47:12.575Z,3.25
2019-05-02T23:49:42.683Z,3.20
2019-05-02T23:52:12.981Z,2.60
2019-05-02T23:54:50.083Z,2.77
2019-05-02T23:57:13.057Z,2.20
2019-05-02T23:59:42.460Z,2.67
